Time;durP1;ratioP1;P1;durP2;ratioP2;P2;SDS_P1;SDS_P2;PMS_P1;PMS_P2;Temp;Humidity;BMP_temperature;BMP_pressure;BME280_temperature;BME280_humidity;BME280_pressure;Samples;Min_cycle;Max_cycle;Signal;HPM_P1;HPM_P2
2022/04/27 00:00:03;;;;;;;0;0;;;;;;;0;0;0;;;;
2022/04/27 00:01:05;;;;;;;0;0;;;;;;;0;0;0;;;;
2022/04/27 00:02:06;;;;;;;0;0;;;;;;;0;0;0;;;;
2022/04/27 00:03:06;;;;;;;0;0;;;;;;;0;0;0;;;;
2022/04/27 00:04:07;;;;;;;0;0;;;;;;;0;0;0;;;;
2022/04/27 00:05:07;;;;;;;0;0;;;;;;;0;0;0;;;;
2022/04/27 00:06:09;;;;;;;0;0;;;;;;;0;0;0;;;;
2022/04/27 00:07:10;;;;;;;0;0;;;;;;;0;0;0;;;;
2022/04/27 00:08:11;;;;;;;0;0;;;;;;;0;0;0;;;;
2022/04/27 00:09:11;;;;;;;0;0;;;;;;;0;0;0;;;;
2022/04/27 00:10:12;;;;;;;0;0;;;;;;;0;0;0;;;;
2022/04/27 00:11:13;;;;;;;0;0;;;;;;;0;0;0;;;;
2022/04/27 00:12:13;;;;;;;0;0;;;;;;;0;0;0;;;;
2022/04/27 00:13:15;;;;;;;0;0;;;;;;;0;0;0;;;;
2022/04/27 00:14:16;;;;;;;0;0;;;;;;;0;0;0;;;;
2022/04/27 00:15:20;;;;;;;0;0;;;;;;;0;0;0;;;;
2022/04/27 00:16:21;;;;;;;0;0;;;;;;;0;0;0;;;;
2022/04/27 00:17:21;;;;;;;0;0;;;;;;;0;0;0;;;;
2022/04/27 00:18:22;;;;;;;0;0;;;;;;;0;0;0;;;;
2022/04/27 00:19:23;;;;;;;0;0;;;;;;;0;0;0;;;;
2022/04/27 00:20:23;;;;;;;0;0;;;;;;;0;0;0;;;;
2022/04/27 00:21:24;;;;;;;0;0;;;;;;;0;0;0;;;;
2022/04/27 00:22:25;;;;;;;0;0;;;;;;;0;0;0;;;;
2022/04/27 00:23:26;;;;;;;0;0;;;;;;;0;0;0;;;;
2022/04/27 00:24:27;;;;;;;0;0;;;;;;;0;0;0;;;;
2022/04/27 00:25:28;;;;;;;0;0;;;;;;;0;0;0;;;;
2022/04/27 00:26:28;;;;;;;0;0;;;;;;;0;0;0;;;;
2022/04/27 00:27:29;;;;;;;0;0;;;;;;;0;0;0;;;;
2022/04/27 00:28:31;;;;;;;0;0;;;;;;;0;0;0;;;;
2022/04/27 00:29:31;;;;;;;0;0;;;;;;;0;0;0;;;;
2022/04/27 00:30:32;;;;;;;0;0;;;;;;;0;0;0;;;;
2022/04/27 00:31:33;;;;;;;0;0;;;;;;;0;0;0;;;;
2022/04/27 00:32:33;;;;;;;0;0;;;;;;;0;0;0;;;;
2022/04/27 00:33:34;;;;;;;0;0;;;;;;;0;0;0;;;;
2022/04/27 00:34:35;;;;;;;0;0;;;;;;;0;0;0;;;;
2022/04/27 00:35:35;;;;;;;0;0;;;;;;;0;0;0;;;;
2022/04/27 00:36:36;;;;;;;0;0;;;;;;;0;0;0;;;;
2022/04/27 00:37:36;;;;;;;0;0;;;;;;;0;0;0;;;;
2022/04/27 00:38:37;;;;;;;0;0;;;;;;;0;0;0;;;;
2022/04/27 00:39:37;;;;;;;0;0;;;;;;;0;0;0;;;;
2022/04/27 00:40:38;;;;;;;0;0;;;;;;;0;0;0;;;;
2022/04/27 00:41:39;;;;;;;0;0;;;;;;;0;0;0;;;;
2022/04/27 00:42:39;;;;;;;0;0;;;;;;;0;0;0;;;;
2022/04/27 00:43:40;;;;;;;0;0;;;;;;;0;0;0;;;;
2022/04/27 00:44:43;;;;;;;0;0;;;;;;;0;0;0;;;;
2022/04/27 00:45:44;;;;;;;0;0;;;;;;;0;0;0;;;;
2022/04/27 00:46:45;;;;;;;0;0;;;;;;;0;0;0;;;;
2022/04/27 00:47:45;;;;;;;0;0;;;;;;;0;0;0;;;;
2022/04/27 00:48:46;;;;;;;0;0;;;;;;;0;0;0;;;;
2022/04/27 00:49:47;;;;;;;0;0;;;;;;;0;0;0;;;;
2022/04/27 00:50:49;;;;;;;0;0;;;;;;;0;0;0;;;;
2022/04/27 00:51:50;;;;;;;0;0;;;;;;;0;0;0;;;;
2022/04/27 00:52:51;;;;;;;0;0;;;;;;;0;0;0;;;;
2022/04/27 00:53:52;;;;;;;0;0;;;;;;;0;0;0;;;;
2022/04/27 00:54:52;;;;;;;0;0;;;;;;;0;0;0;;;;
2022/04/27 00:55:54;;;;;;;0;0;;;;;;;0;0;0;;;;
2022/04/27 00:56:56;;;;;;;0;0;;;;;;;0;0;0;;;;
2022/04/27 00:57:59;;;;;;;0;0;;;;;;;0;0;0;;;;
2022/04/27 00:59:01;;;;;;;0;0;;;;;;;0;0;0;;;;
2022/04/27 01:00:02;;;;;;;0;0;;;;;;;0;0;0;;;;
2022/04/27 01:01:03;;;;;;;0;0;;;;;;;0;0;0;;;;
2022/04/27 01:02:04;;;;;;;0;0;;;;;;;0;0;0;;;;
2022/04/27 01:03:06;;;;;;;0;0;;;;;;;0;0;0;;;;
2022/04/27 01:04:07;;;;;;;0;0;;;;;;;0;0;0;;;;
2022/04/27 01:05:09;;;;;;;0;0;;;;;;;0;0;0;;;;
2022/04/27 01:06:10;;;;;;;0;0;;;;;;;0;0;0;;;;
2022/04/27 01:07:11;;;;;;;0;0;;;;;;;0;0;0;;;;
2022/04/27 01:08:12;;;;;;;0;0;;;;;;;0;0;0;;;;
2022/04/27 01:09:14;;;;;;;0;0;;;;;;;0;0;0;;;;
2022/04/27 01:10:14;;;;;;;0;0;;;;;;;0;0;0;;;;
2022/04/27 01:11:16;;;;;;;0;0;;;;;;;0;0;0;;;;
2022/04/27 01:12:18;;;;;;;0;0;;;;;;;0;0;0;;;;
2022/04/27 01:13:19;;;;;;;0;0;;;;;;;0;0;0;;;;
2022/04/27 01:14:20;;;;;;;0;0;;;;;;;0;0;0;;;;
2022/04/27 01:15:20;;;;;;;0;0;;;;;;;0;0;0;;;;
2022/04/27 01:16:37;;;;;;;0;0;;;;;;;0;0;0;;;;
2022/04/27 01:17:37;;;;;;;0;0;;;;;;;0;0;0;;;;
2022/04/27 01:18:38;;;;;;;0;0;;;;;;;0;0;0;;;;
2022/04/27 01:19:38;;;;;;;0;0;;;;;;;0;0;0;;;;
2022/04/27 01:20:39;;;;;;;0;0;;;;;;;0;0;0;;;;
2022/04/27 01:21:40;;;;;;;0;0;;;;;;;0;0;0;;;;
2022/04/27 01:22:41;;;;;;;0;0;;;;;;;0;0;0;;;;
2022/04/27 01:23:41;;;;;;;0;0;;;;;;;0;0;0;;;;
2022/04/27 01:24:44;;;;;;;0;0;;;;;;;0;0;0;;;;
2022/04/27 01:25:46;;;;;;;0;0;;;;;;;0;0;0;;;;
2022/04/27 01:26:50;;;;;;;0;0;;;;;;;0;0;0;;;;
2022/04/27 01:27:51;;;;;;;0;0;;;;;;;0;0;0;;;;
2022/04/27 01:28:51;;;;;;;0;0;;;;;;;0;0;0;;;;
2022/04/27 01:29:52;;;;;;;0;0;;;;;;;0;0;0;;;;
2022/04/27 01:30:52;;;;;;;0;0;;;;;;;0;0;0;;;;
2022/04/27 01:32:00;;;;;;;0;0;;;;;;;0;0;0;;;;
2022/04/27 01:33:00;;;;;;;0;0;;;;;;;0;0;0;;;;
2022/04/27 01:34:06;;;;;;;0;0;;;;;;;0;0;0;;;;
2022/04/27 01:35:06;;;;;;;0;0;;;;;;;0;0;0;;;;
2022/04/27 01:36:08;;;;;;;0;0;;;;;;;0;0;0;;;;
2022/04/27 01:38:18;;;;;;;0;0;;;;;;;0;0;0;;;;
2022/04/27 01:39:22;;;;;;;0;0;;;;;;;0;0;0;;;;
2022/04/27 01:40:22;;;;;;;0;0;;;;;;;0;0;0;;;;
2022/04/27 01:41:23;;;;;;;0;0;;;;;;;0;0;0;;;;
2022/04/27 01:42:24;;;;;;;0;0;;;;;;;0;0;0;;;;
2022/04/27 01:43:24;;;;;;;0;0;;;;;;;0;0;0;;;;
2022/04/27 01:44:25;;;;;;;0;0;;;;;;;0;0;0;;;;
2022/04/27 01:45:25;;;;;;;0;0;;;;;;;0;0;0;;;;
2022/04/27 01:46:26;;;;;;;0;0;;;;;;;0;0;0;;;;
2022/04/27 01:47:27;;;;;;;0;0;;;;;;;0;0;0;;;;
2022/04/27 01:48:27;;;;;;;0;0;;;;;;;0;0;0;;;;
2022/04/27 01:49:28;;;;;;;0;0;;;;;;;0;0;0;;;;
2022/04/27 01:50:29;;;;;;;0;0;;;;;;;0;0;0;;;;
2022/04/27 01:56:40;;;;;;;0;0;;;;;;;0;0;0;;;;
2022/04/27 01:57:40;;;;;;;0;0;;;;;;;0;0;0;;;;
2022/04/27 01:58:41;;;;;;;0;0;;;;;;;0;0;0;;;;
2022/04/27 01:59:42;;;;;;;0;0;;;;;;;0;0;0;;;;
2022/04/27 02:00:46;;;;;;;0;0;;;;;;;0;0;0;;;;
2022/04/27 02:01:46;;;;;;;0;0;;;;;;;0;0;0;;;;
2022/04/27 02:02:47;;;;;;;0;0;;;;;;;0;0;0;;;;
2022/04/27 02:03:47;;;;;;;0;0;;;;;;;0;0;0;;;;
2022/04/27 02:04:48;;;;;;;0;0;;;;;;;0;0;0;;;;
2022/04/27 02:05:48;;;;;;;0;0;;;;;;;0;0;0;;;;
2022/04/27 02:06:49;;;;;;;0;0;;;;;;;0;0;0;;;;
2022/04/27 02:07:49;;;;;;;0;0;;;;;;;0;0;0;;;;
2022/04/27 02:08:50;;;;;;;0;0;;;;;;;0;0;0;;;;
2022/04/27 02:09:50;;;;;;;0;0;;;;;;;0;0;0;;;;
2022/04/27 02:10:51;;;;;;;0;0;;;;;;;0;0;0;;;;
2022/04/27 02:11:52;;;;;;;0;0;;;;;;;0;0;0;;;;
2022/04/27 02:12:52;;;;;;;0;0;;;;;;;0;0;0;;;;
2022/04/27 02:13:54;;;;;;;0;0;;;;;;;0;0;0;;;;
2022/04/27 02:14:55;;;;;;;0;0;;;;;;;0;0;0;;;;
2022/04/27 02:15:55;;;;;;;0;0;;;;;;;0;0;0;;;;
2022/04/27 02:16:57;;;;;;;0;0;;;;;;;0;0;0;;;;
2022/04/27 02:17:57;;;;;;;0;0;;;;;;;0;0;0;;;;
2022/04/27 02:18:58;;;;;;;0;0;;;;;;;0;0;0;;;;
2022/04/27 02:19:59;;;;;;;0;0;;;;;;;0;0;0;;;;
2022/04/27 02:20:59;;;;;;;0;0;;;;;;;0;0;0;;;;
2022/04/27 02:22:00;;;;;;;0;0;;;;;;;0;0;0;;;;
2022/04/27 02:23:00;;;;;;;0;0;;;;;;;0;0;0;;;;
2022/04/27 02:24:01;;;;;;;0;0;;;;;;;0;0;0;;;;
2022/04/27 02:25:01;;;;;;;0;0;;;;;;;0;0;0;;;;
2022/04/27 02:26:03;;;;;;;0;0;;;;;;;0;0;0;;;;
2022/04/27 02:27:03;;;;;;;0;0;;;;;;;0;0;0;;;;
2022/04/27 02:28:05;;;;;;;0;0;;;;;;;0;0;0;;;;
2022/04/27 02:29:06;;;;;;;0;0;;;;;;;0;0;0;;;;
2022/04/27 02:30:06;;;;;;;0;0;;;;;;;0;0;0;;;;
2022/04/27 02:31:08;;;;;;;0;0;;;;;;;0;0;0;;;;
2022/04/27 02:32:09;;;;;;;0;0;;;;;;;0;0;0;;;;
2022/04/27 02:33:09;;;;;;;0;0;;;;;;;0;0;0;;;;
2022/04/27 02:34:10;;;;;;;0;0;;;;;;;0;0;0;;;;
2022/04/27 02:35:11;;;;;;;0;0;;;;;;;0;0;0;;;;
2022/04/27 02:36:12;;;;;;;0;0;;;;;;;0;0;0;;;;
2022/04/27 02:37:13;;;;;;;0;0;;;;;;;0;0;0;;;;
2022/04/27 02:38:13;;;;;;;0;0;;;;;;;0;0;0;;;;
2022/04/27 02:39:14;;;;;;;0;0;;;;;;;0;0;0;;;;
2022/04/27 02:40:14;;;;;;;0;0;;;;;;;0;0;0;;;;
2022/04/27 02:41:15;;;;;;;0;0;;;;;;;0;0;0;;;;
2022/04/27 02:42:17;;;;;;;0;0;;;;;;;0;0;0;;;;
2022/04/27 02:43:18;;;;;;;0;0;;;;;;;0;0;0;;;;
2022/04/27 02:44:18;;;;;;;0;0;;;;;;;0;0;0;;;;
2022/04/27 02:45:19;;;;;;;0;0;;;;;;;0;0;0;;;;
2022/04/27 02:46:19;;;;;;;0;0;;;;;;;0;0;0;;;;
2022/04/27 02:47:20;;;;;;;0;0;;;;;;;0;0;0;;;;
2022/04/27 02:48:20;;;;;;;0;0;;;;;;;0;0;0;;;;
2022/04/27 02:54:21;;;;;;;0;0;;;;;;;0;0;0;;;;
2022/04/27 02:55:23;;;;;;;0;0;;;;;;;0;0;0;;;;
2022/04/27 02:56:23;;;;;;;0;0;;;;;;;0;0;0;;;;
2022/04/27 02:57:24;;;;;;;0;0;;;;;;;0;0;0;;;;
2022/04/27 02:58:24;;;;;;;0;0;;;;;;;0;0;0;;;;
2022/04/27 02:59:25;;;;;;;0;0;;;;;;;0;0;0;;;;
2022/04/27 03:00:26;;;;;;;0;0;;;;;;;0;0;0;;;;
2022/04/27 03:01:26;;;;;;;0;0;;;;;;;0;0;0;;;;
2022/04/27 03:02:27;;;;;;;0;0;;;;;;;0;0;0;;;;
2022/04/27 03:03:27;;;;;;;0;0;;;;;;;0;0;0;;;;
2022/04/27 03:04:27;;;;;;;0;0;;;;;;;0;0;0;;;;
2022/04/27 03:05:28;;;;;;;0;0;;;;;;;0;0;0;;;;
2022/04/27 03:06:28;;;;;;;0;0;;;;;;;0;0;0;;;;
2022/04/27 03:07:29;;;;;;;0;0;;;;;;;0;0;0;;;;
2022/04/27 03:08:29;;;;;;;0;0;;;;;;;0;0;0;;;;
2022/04/27 03:09:30;;;;;;;0;0;;;;;;;0;0;0;;;;
2022/04/27 03:10:30;;;;;;;0;0;;;;;;;0;0;0;;;;
2022/04/27 03:11:31;;;;;;;0;0;;;;;;;0;0;0;;;;
2022/04/27 03:12:31;;;;;;;0;0;;;;;;;0;0;0;;;;
2022/04/27 03:13:34;;;;;;;0;0;;;;;;;0;0;0;;;;
2022/04/27 03:14:35;;;;;;;0;0;;;;;;;0;0;0;;;;
2022/04/27 03:15:35;;;;;;;0;0;;;;;;;0;0;0;;;;
2022/04/27 03:16:35;;;;;;;0;0;;;;;;;0;0;0;;;;
2022/04/27 03:17:36;;;;;;;0;0;;;;;;;0;0;0;;;;
2022/04/27 03:18:37;;;;;;;0;0;;;;;;;0;0;0;;;;
2022/04/27 03:19:38;;;;;;;0;0;;;;;;;0;0;0;;;;
2022/04/27 03:20:39;;;;;;;0;0;;;;;;;0;0;0;;;;
2022/04/27 03:21:39;;;;;;;0;0;;;;;;;0;0;0;;;;
2022/04/27 03:22:40;;;;;;;0;0;;;;;;;0;0;0;;;;
2022/04/27 03:23:40;;;;;;;17.3;13.45;;;;;;;5.84;100;95456.94;;;;
2022/04/27 03:24:41;;;;;;;17.3;13.45;;;;;;;5.84;100;95456.94;;;;
2022/04/27 03:25:41;;;;;;;17.3;13.45;;;;;;;5.84;100;95456.94;;;;
2022/04/27 03:26:42;;;;;;;17.3;13.45;;;;;;;5.84;100;95456.94;;;;
2022/04/27 03:27:42;;;;;;;17.3;13.45;;;;;;;5.84;100;95456.94;;;;
2022/04/27 03:28:43;;;;;;;17.3;13.45;;;;;;;5.84;100;95456.94;;;;
2022/04/27 03:29:43;;;;;;;17.3;13.45;;;;;;;5.84;100;95456.94;;;;
2022/04/27 03:30:43;;;;;;;17.3;13.45;;;;;;;5.84;100;95456.94;;;;
2022/04/27 03:31:44;;;;;;;17.3;13.45;;;;;;;5.84;100;95456.94;;;;
2022/04/27 03:32:44;;;;;;;17.3;13.45;;;;;;;5.84;100;95456.94;;;;
2022/04/27 03:33:45;;;;;;;17.3;13.45;;;;;;;5.84;100;95456.94;;;;
2022/04/27 03:34:46;;;;;;;16.35;13.75;;;;;;;5.94;100;95452.95;;;;
2022/04/27 03:35:47;;;;;;;16.35;13.75;;;;;;;5.94;100;95452.95;;;;
2022/04/27 03:36:48;;;;;;;16.35;13.75;;;;;;;5.94;100;95452.95;;;;
2022/04/27 03:37:48;;;;;;;16.35;13.75;;;;;;;5.94;100;95452.95;;;;
2022/04/27 03:38:49;;;;;;;16.35;13.75;;;;;;;5.94;100;95452.95;;;;
2022/04/27 03:39:49;;;;;;;16.35;13.75;;;;;;;5.94;100;95452.95;;;;
2022/04/27 03:40:50;;;;;;;16.35;13.75;;;;;;;5.94;100;95452.95;;;;
2022/04/27 03:41:50;;;;;;;16.35;13.75;;;;;;;5.94;100;95452.95;;;;
2022/04/27 03:42:51;;;;;;;16.35;13.75;;;;;;;5.94;100;95452.95;;;;
2022/04/27 03:43:51;;;;;;;16.35;13.75;;;;;;;5.94;100;95452.95;;;;
2022/04/27 03:44:52;;;;;;;16.5;13.6;;;;;;;6;100;95455.63;;;;
2022/04/27 03:45:52;;;;;;;16.5;13.6;;;;;;;6;100;95455.63;;;;
2022/04/27 03:46:53;;;;;;;16.5;13.6;;;;;;;6;100;95455.63;;;;
2022/04/27 03:47:53;;;;;;;16.5;13.6;;;;;;;6;100;95455.63;;;;
2022/04/27 03:48:54;;;;;;;16.5;13.6;;;;;;;6;100;95455.63;;;;
2022/04/27 03:49:58;;;;;;;16.5;13.6;;;;;;;6;100;95455.63;;;;
2022/04/27 03:50:58;;;;;;;16.5;13.6;;;;;;;6;100;95455.63;;;;
2022/04/27 03:51:59;;;;;;;16.5;13.6;;;;;;;6;100;95455.63;;;;
2022/04/27 03:52:59;;;;;;;16.5;13.6;;;;;;;6;100;95455.63;;;;
2022/04/27 03:54:00;;;;;;;16.5;13.6;;;;;;;6;100;95455.63;;;;
2022/04/27 03:55:01;;;;;;;16.5;13.6;;;;;;;6;100;95455.63;;;;
2022/04/27 03:56:01;;;;;;;15.55;13.25;;;;;;;6.15;100;95467.39;;;;
2022/04/27 03:57:02;;;;;;;15.55;13.25;;;;;;;6.15;100;95467.39;;;;
2022/04/27 03:58:03;;;;;;;15.55;13.25;;;;;;;6.15;100;95467.39;;;;
2022/04/27 03:59:05;;;;;;;15.55;13.25;;;;;;;6.15;100;95467.39;;;;
2022/04/27 04:00:06;;;;;;;15.55;13.25;;;;;;;6.15;100;95467.39;;;;
2022/04/27 04:01:08;;;;;;;15.55;13.25;;;;;;;6.15;100;95467.39;;;;
2022/04/27 04:02:09;;;;;;;15.55;13.25;;;;;;;6.15;100;95467.39;;;;
2022/04/27 04:03:11;;;;;;;15.55;13.25;;;;;;;6.15;100;95467.39;;;;
2022/04/27 04:04:11;;;;;;;15.55;13.25;;;;;;;6.15;100;95467.39;;;;
2022/04/27 04:05:12;;;;;;;15.55;13.25;;;;;;;6.15;100;95467.39;;;;
2022/04/27 04:06:12;;;;;;;17.7;13.45;;;;;;;6.2;100;95484.22;;;;
2022/04/27 04:07:13;;;;;;;17.7;13.45;;;;;;;6.2;100;95484.22;;;;
2022/04/27 04:08:13;;;;;;;17.7;13.45;;;;;;;6.2;100;95484.22;;;;
2022/04/27 04:09:14;;;;;;;17.7;13.45;;;;;;;6.2;100;95484.22;;;;
2022/04/27 04:10:14;;;;;;;17.7;13.45;;;;;;;6.2;100;95484.22;;;;
2022/04/27 04:11:15;;;;;;;17.7;13.45;;;;;;;6.2;100;95484.22;;;;
2022/04/27 04:12:15;;;;;;;17.7;13.45;;;;;;;6.2;100;95484.22;;;;
2022/04/27 04:13:16;;;;;;;17.7;13.45;;;;;;;6.2;100;95484.22;;;;
2022/04/27 04:14:16;;;;;;;17.7;13.45;;;;;;;6.2;100;95484.22;;;;
2022/04/27 04:15:17;;;;;;;17.7;13.45;;;;;;;6.2;100;95484.22;;;;
2022/04/27 04:16:18;;;;;;;17.7;13.45;;;;;;;6.2;100;95484.22;;;;
2022/04/27 04:17:18;;;;;;;17.7;13.45;;;;;;;6.2;100;95484.22;;;;
2022/04/27 04:18:19;;;;;;;17.7;13.45;;;;;;;6.2;100;95484.22;;;;
2022/04/27 04:19:19;;;;;;;17.7;13.45;;;;;;;6.2;100;95484.22;;;;
2022/04/27 04:20:20;;;;;;;17.7;13.45;;;;;;;6.2;100;95484.22;;;;
2022/04/27 04:21:20;;;;;;;17.7;13.45;;;;;;;6.2;100;95484.22;;;;
2022/04/27 04:22:21;;;;;;;17.7;13.45;;;;;;;6.2;100;95484.22;;;;
2022/04/27 04:23:21;;;;;;;17.7;13.45;;;;;;;6.2;100;95484.22;;;;
2022/04/27 04:24:22;;;;;;;17.7;13.45;;;;;;;6.2;100;95484.22;;;;
2022/04/27 04:30:36;;;;;;;18.7;13.6;;;;;;;6.24;100;95508.26;;;;
2022/04/27 04:31:37;;;;;;;18.7;13.6;;;;;;;6.24;100;95508.26;;;;
2022/04/27 04:32:38;;;;;;;18.7;13.6;;;;;;;6.24;100;95508.26;;;;
2022/04/27 04:33:38;;;;;;;18.7;13.6;;;;;;;6.24;100;95508.26;;;;
2022/04/27 04:34:39;;;;;;;18.7;13.6;;;;;;;6.24;100;95508.26;;;;
2022/04/27 04:35:39;;;;;;;18.7;13.6;;;;;;;6.24;100;95508.26;;;;
2022/04/27 04:36:40;;;;;;;18.7;13.6;;;;;;;6.24;100;95508.26;;;;
2022/04/27 04:37:40;;;;;;;18.7;13.6;;;;;;;6.24;100;95508.26;;;;
2022/04/27 04:38:41;;;;;;;18.5;14.35;;;;;;;6.26;100;95513.7;;;;
2022/04/27 04:39:41;;;;;;;18.5;14.35;;;;;;;6.26;100;95513.7;;;;
2022/04/27 04:40:42;;;;;;;18.5;14.35;;;;;;;6.26;100;95513.7;;;;
2022/04/27 04:41:42;;;;;;;18.5;14.35;;;;;;;6.26;100;95513.7;;;;
2022/04/27 04:42:42;;;;;;;18.5;14.35;;;;;;;6.26;100;95513.7;;;;
2022/04/27 04:43:43;;;;;;;18.5;14.35;;;;;;;6.26;100;95513.7;;;;
2022/04/27 04:44:43;;;;;;;18.5;14.35;;;;;;;6.26;100;95513.7;;;;
2022/04/27 04:45:44;;;;;;;18.5;14.35;;;;;;;6.26;100;95513.7;;;;
2022/04/27 04:46:45;;;;;;;18.5;14.35;;;;;;;6.26;100;95513.7;;;;
2022/04/27 04:47:46;;;;;;;18.5;14.35;;;;;;;6.26;100;95513.7;;;;
2022/04/27 04:48:46;;;;;;;17.3;14.2;;;;;;;6.38;100;95530.96;;;;
2022/04/27 04:49:46;;;;;;;17.3;14.2;;;;;;;6.38;100;95530.96;;;;
2022/04/27 04:50:48;;;;;;;17.3;14.2;;;;;;;6.38;100;95530.96;;;;
2022/04/27 04:51:48;;;;;;;17.3;14.2;;;;;;;6.38;100;95530.96;;;;
2022/04/27 04:52:48;;;;;;;17.3;14.2;;;;;;;6.38;100;95530.96;;;;
2022/04/27 04:53:49;;;;;;;17.3;14.2;;;;;;;6.38;100;95530.96;;;;
2022/04/27 04:54:49;;;;;;;17.3;14.2;;;;;;;6.38;100;95530.96;;;;
2022/04/27 04:55:50;;;;;;;17.3;14.2;;;;;;;6.38;100;95530.96;;;;
2022/04/27 04:56:50;;;;;;;17.3;14.2;;;;;;;6.38;100;95530.96;;;;
2022/04/27 04:57:51;;;;;;;17.3;14.2;;;;;;;6.38;100;95530.96;;;;
2022/04/27 04:58:51;;;;;;;17.3;14.2;;;;;;;6.38;100;95530.96;;;;
2022/04/27 04:59:52;;;;;;;19.2;15.25;;;;;;;6.51;100;95540.79;;;;
2022/04/27 05:00:53;;;;;;;19.2;15.25;;;;;;;6.51;100;95540.79;;;;
2022/04/27 05:01:53;;;;;;;19.2;15.25;;;;;;;6.51;100;95540.79;;;;
2022/04/27 05:02:54;;;;;;;19.2;15.25;;;;;;;6.51;100;95540.79;;;;
2022/04/27 05:03:55;;;;;;;19.2;15.25;;;;;;;6.51;100;95540.79;;;;
2022/04/27 05:04:55;;;;;;;19.2;15.25;;;;;;;6.51;100;95540.79;;;;
2022/04/27 05:05:56;;;;;;;19.2;15.25;;;;;;;6.51;100;95540.79;;;;
2022/04/27 05:06:56;;;;;;;19.2;15.25;;;;;;;6.51;100;95540.79;;;;
2022/04/27 05:07:57;;;;;;;19.2;15.25;;;;;;;6.51;100;95540.79;;;;
2022/04/27 05:08:57;;;;;;;19.2;15.25;;;;;;;6.51;100;95540.79;;;;
2022/04/27 05:09:58;;;;;;;19.2;15.25;;;;;;;6.51;100;95540.79;;;;
2022/04/27 05:10:59;;;;;;;19.2;15.25;;;;;;;6.51;100;95540.79;;;;
2022/04/27 05:11:59;;;;;;;19.2;15.25;;;;;;;6.51;100;95540.79;;;;
2022/04/27 05:13:00;;;;;;;19.2;15.25;;;;;;;6.51;100;95540.79;;;;
2022/04/27 05:14:00;;;;;;;19.2;15.25;;;;;;;6.51;100;95540.79;;;;
2022/04/27 05:15:01;;;;;;;19.2;15.25;;;;;;;6.51;100;95540.79;;;;
2022/04/27 05:16:01;;;;;;;19.2;15.25;;;;;;;6.51;100;95540.79;;;;
2022/04/27 05:17:02;;;;;;;19.2;15.25;;;;;;;6.51;100;95540.79;;;;
2022/04/27 05:18:03;;;;;;;19.2;15.25;;;;;;;6.51;100;95540.79;;;;
2022/04/27 05:19:04;;;;;;;19.2;15.25;;;;;;;6.51;100;95540.79;;;;
2022/04/27 05:20:05;;;;;;;19.2;15.25;;;;;;;6.51;100;95540.79;;;;
2022/04/27 05:21:06;;;;;;;18.15;14.45;;;;;;;6.79;100;95564.23;;;;
2022/04/27 05:22:07;;;;;;;18.15;14.45;;;;;;;6.79;100;95564.23;;;;
2022/04/27 05:23:08;;;;;;;18.15;14.45;;;;;;;6.79;100;95564.23;;;;
2022/04/27 05:24:08;;;;;;;18.15;14.45;;;;;;;6.79;100;95564.23;;;;
2022/04/27 05:25:09;;;;;;;18.15;14.45;;;;;;;6.79;100;95564.23;;;;
2022/04/27 05:26:11;;;;;;;18.15;14.45;;;;;;;6.79;100;95564.23;;;;
2022/04/27 05:27:12;;;;;;;18.15;14.45;;;;;;;6.79;100;95564.23;;;;
2022/04/27 05:28:12;;;;;;;18.15;14.45;;;;;;;6.79;100;95564.23;;;;
2022/04/27 05:34:26;;;;;;;18.05;14.15;;;;;;;6.69;100;95568.35;;;;
2022/04/27 05:35:28;;;;;;;18.05;14.15;;;;;;;6.69;100;95568.35;;;;
2022/04/27 05:36:28;;;;;;;18.05;14.15;;;;;;;6.69;100;95568.35;;;;
2022/04/27 05:37:29;;;;;;;18.05;14.15;;;;;;;6.69;100;95568.35;;;;
2022/04/27 05:38:30;;;;;;;18.05;14.15;;;;;;;6.69;100;95568.35;;;;
2022/04/27 05:39:30;;;;;;;18.05;14.15;;;;;;;6.69;100;95568.35;;;;
2022/04/27 05:40:31;;;;;;;18.05;14.15;;;;;;;6.69;100;95568.35;;;;
2022/04/27 05:41:31;;;;;;;18.05;14.15;;;;;;;6.69;100;95568.35;;;;
2022/04/27 05:42:32;;;;;;;24.15;17.95;;;;;;;6.95;100;95574.64;;;;
2022/04/27 05:43:32;;;;;;;24.15;17.95;;;;;;;6.95;100;95574.64;;;;
2022/04/27 05:44:33;;;;;;;24.15;17.95;;;;;;;6.95;100;95574.64;;;;
2022/04/27 05:45:33;;;;;;;24.15;17.95;;;;;;;6.95;100;95574.64;;;;
2022/04/27 05:46:34;;;;;;;24.15;17.95;;;;;;;6.95;100;95574.64;;;;
2022/04/27 05:47:34;;;;;;;24.15;17.95;;;;;;;6.95;100;95574.64;;;;
2022/04/27 05:48:35;;;;;;;24.15;17.95;;;;;;;6.95;100;95574.64;;;;
2022/04/27 05:49:35;;;;;;;24.15;17.95;;;;;;;6.95;100;95574.64;;;;
2022/04/27 05:50:36;;;;;;;24.15;17.95;;;;;;;6.95;100;95574.64;;;;
2022/04/27 05:51:36;;;;;;;24.15;17.95;;;;;;;6.95;100;95574.64;;;;
2022/04/27 05:52:37;;;;;;;24.15;17.95;;;;;;;6.95;100;95574.64;;;;
2022/04/27 05:53:55;;;;;;;22.15;15.95;;;;;;;8.28;100;95599.92;;;;
2022/04/27 05:54:55;;;;;;;22.15;15.95;;;;;;;8.28;100;95599.92;;;;
2022/04/27 05:55:56;;;;;;;22.15;15.95;;;;;;;8.28;100;95599.92;;;;
2022/04/27 05:56:56;;;;;;;22.15;15.95;;;;;;;8.28;100;95599.92;;;;
2022/04/27 05:57:57;;;;;;;22.15;15.95;;;;;;;8.28;100;95599.92;;;;
2022/04/27 05:58:57;;;;;;;22.15;15.95;;;;;;;8.28;100;95599.92;;;;
2022/04/27 05:59:58;;;;;;;22.15;15.95;;;;;;;8.28;100;95599.92;;;;
2022/04/27 06:00:58;;;;;;;22.15;15.95;;;;;;;8.28;100;95599.92;;;;
2022/04/27 06:01:59;;;;;;;22.15;15.95;;;;;;;8.28;100;95599.92;;;;
2022/04/27 06:02:59;;;;;;;22.15;15.95;;;;;;;8.28;100;95599.92;;;;
2022/04/27 06:04:00;;;;;;;22.15;15.95;;;;;;;8.28;100;95599.92;;;;
2022/04/27 06:05:00;;;;;;;22.15;15.95;;;;;;;8.28;100;95599.92;;;;
2022/04/27 06:06:01;;;;;;;22.15;15.95;;;;;;;8.28;100;95599.92;;;;
2022/04/27 06:07:01;;;;;;;22.15;15.95;;;;;;;8.28;100;95599.92;;;;
2022/04/27 06:08:02;;;;;;;22.15;15.95;;;;;;;8.28;100;95599.92;;;;
2022/04/27 06:09:04;;;;;;;22.15;15.95;;;;;;;8.28;100;95599.92;;;;
2022/04/27 06:10:04;;;;;;;22.15;15.95;;;;;;;8.28;100;95599.92;;;;
2022/04/27 06:11:07;;;;;;;22.15;15.95;;;;;;;8.28;100;95599.92;;;;
2022/04/27 06:12:07;;;;;;;22.15;15.95;;;;;;;8.28;100;95599.92;;;;
2022/04/27 06:13:08;;;;;;;22.15;15.95;;;;;;;8.28;100;95599.92;;;;
2022/04/27 06:14:09;;;;;;;22.15;15.95;;;;;;;8.28;100;95599.92;;;;
2022/04/27 06:15:09;;;;;;;19.75;15.7;;;;;;;8.88;100;95619.67;;;;
2022/04/27 06:16:11;;;;;;;19.75;15.7;;;;;;;8.88;100;95619.67;;;;
2022/04/27 06:17:11;;;;;;;19.75;15.7;;;;;;;8.88;100;95619.67;;;;
2022/04/27 06:18:12;;;;;;;19.75;15.7;;;;;;;8.88;100;95619.67;;;;
2022/04/27 06:19:13;;;;;;;19.75;15.7;;;;;;;8.88;100;95619.67;;;;
2022/04/27 06:20:13;;;;;;;19.75;15.7;;;;;;;8.88;100;95619.67;;;;
2022/04/27 06:21:14;;;;;;;19.75;15.7;;;;;;;8.88;100;95619.67;;;;
2022/04/27 06:22:15;;;;;;;19.75;15.7;;;;;;;8.88;100;95619.67;;;;
2022/04/27 06:23:19;;;;;;;19.75;15.7;;;;;;;8.88;100;95619.67;;;;
2022/04/27 06:24:19;;;;;;;19.75;15.7;;;;;;;8.88;100;95619.67;;;;
2022/04/27 06:25:20;;;;;;;18.55;14.8;;;;;;;9.33;100;95627.01;;;;
2022/04/27 06:26:20;;;;;;;18.55;14.8;;;;;;;9.33;100;95627.01;;;;
2022/04/27 06:27:21;;;;;;;18.55;14.8;;;;;;;9.33;100;95627.01;;;;
2022/04/27 06:28:21;;;;;;;18.55;14.8;;;;;;;9.33;100;95627.01;;;;
2022/04/27 06:29:22;;;;;;;18.55;14.8;;;;;;;9.33;100;95627.01;;;;
2022/04/27 06:30:24;;;;;;;18.55;14.8;;;;;;;9.33;100;95627.01;;;;
2022/04/27 06:31:25;;;;;;;18.55;14.8;;;;;;;9.33;100;95627.01;;;;
2022/04/27 06:32:26;;;;;;;18.55;14.8;;;;;;;9.33;100;95627.01;;;;
2022/04/27 06:33:30;;;;;;;18.55;14.8;;;;;;;9.33;100;95627.01;;;;
2022/04/27 06:34:31;;;;;;;18.55;14.8;;;;;;;9.33;100;95627.01;;;;
2022/04/27 06:35:31;;;;;;;18.55;14.8;;;;;;;9.33;100;95627.01;;;;
2022/04/27 06:36:32;;;;;;;18.55;14.8;;;;;;;9.33;100;95627.01;;;;
2022/04/27 06:37:32;;;;;;;18.55;14.8;;;;;;;9.33;100;95627.01;;;;
2022/04/27 06:38:33;;;;;;;18.55;14.8;;;;;;;9.33;100;95627.01;;;;
2022/04/27 06:39:33;;;;;;;18.55;14.8;;;;;;;9.33;100;95627.01;;;;
2022/04/27 06:40:34;;;;;;;18.55;14.8;;;;;;;9.33;100;95627.01;;;;
2022/04/27 06:41:34;;;;;;;18.55;14.8;;;;;;;9.33;100;95627.01;;;;
2022/04/27 06:42:35;;;;;;;18.55;14.8;;;;;;;9.33;100;95627.01;;;;
2022/04/27 06:43:36;;;;;;;18.55;14.8;;;;;;;9.33;100;95627.01;;;;
2022/04/27 06:44:36;;;;;;;18.55;14.8;;;;;;;9.33;100;95627.01;;;;
2022/04/27 06:45:37;;;;;;;18.55;14.8;;;;;;;9.33;100;95627.01;;;;
2022/04/27 06:46:38;;;;;;;16.05;13.95;;;;;;;10.99;100;95642.78;;;;
2022/04/27 06:47:38;;;;;;;16.05;13.95;;;;;;;10.99;100;95642.78;;;;
2022/04/27 06:48:39;;;;;;;16.05;13.95;;;;;;;10.99;100;95642.78;;;;
2022/04/27 06:49:39;;;;;;;16.05;13.95;;;;;;;10.99;100;95642.78;;;;
2022/04/27 06:50:39;;;;;;;16.05;13.95;;;;;;;10.99;100;95642.78;;;;
2022/04/27 06:51:40;;;;;;;16.05;13.95;;;;;;;10.99;100;95642.78;;;;
2022/04/27 06:52:41;;;;;;;16.05;13.95;;;;;;;10.99;100;95642.78;;;;
2022/04/27 06:53:43;;;;;;;16.05;13.95;;;;;;;10.99;100;95642.78;;;;
2022/04/27 06:54:44;;;;;;;16.05;13.95;;;;;;;10.99;100;95642.78;;;;
2022/04/27 06:55:44;;;;;;;16.05;13.95;;;;;;;10.99;100;95642.78;;;;
2022/04/27 06:56:45;;;;;;;16.05;13.95;;;;;;;10.99;100;95642.78;;;;
2022/04/27 06:57:45;;;;;;;15.55;14;;;;;;;11.16;100;95644.73;;;;
2022/04/27 06:58:46;;;;;;;15.55;14;;;;;;;11.16;100;95644.73;;;;
2022/04/27 06:59:46;;;;;;;15.55;14;;;;;;;11.16;100;95644.73;;;;
2022/04/27 07:00:47;;;;;;;15.55;14;;;;;;;11.16;100;95644.73;;;;
2022/04/27 07:01:47;;;;;;;15.55;14;;;;;;;11.16;100;95644.73;;;;
2022/04/27 07:02:48;;;;;;;15.55;14;;;;;;;11.16;100;95644.73;;;;
2022/04/27 07:03:53;;;;;;;15.55;14;;;;;;;11.16;100;95644.73;;;;
2022/04/27 07:04:59;;;;;;;15.55;14;;;;;;;11.16;100;95644.73;;;;
2022/04/27 07:06:01;;;;;;;15.55;14;;;;;;;11.16;100;95644.73;;;;
2022/04/27 07:07:02;;;;;;;15.55;14;;;;;;;11.16;100;95644.73;;;;
2022/04/27 07:08:04;;;;;;;13.65;12.25;;;;;;;11.36;100;95646.2;;;;
2022/04/27 07:09:07;;;;;;;13.65;12.25;;;;;;;11.36;100;95646.2;;;;
2022/04/27 07:10:08;;;;;;;13.65;12.25;;;;;;;11.36;100;95646.2;;;;
2022/04/27 07:11:11;;;;;;;13.65;12.25;;;;;;;11.36;100;95646.2;;;;
2022/04/27 07:12:13;;;;;;;13.65;12.25;;;;;;;11.36;100;95646.2;;;;
2022/04/27 07:13:13;;;;;;;13.65;12.25;;;;;;;11.36;100;95646.2;;;;
2022/04/27 07:14:16;;;;;;;13.65;12.25;;;;;;;11.36;100;95646.2;;;;
2022/04/27 07:15:16;;;;;;;13.65;12.25;;;;;;;11.36;100;95646.2;;;;
2022/04/27 07:16:18;;;;;;;13.65;12.25;;;;;;;11.36;100;95646.2;;;;
2022/04/27 07:17:18;;;;;;;13.65;12.25;;;;;;;11.36;100;95646.2;;;;
2022/04/27 07:18:19;;;;;;;13.65;12.25;;;;;;;11.36;100;95646.2;;;;
2022/04/27 07:19:20;;;;;;;12.05;10.85;;;;;;;12.87;100;95640.08;;;;
2022/04/27 07:20:21;;;;;;;12.05;10.85;;;;;;;12.87;100;95640.08;;;;
2022/04/27 07:21:21;;;;;;;12.05;10.85;;;;;;;12.87;100;95640.08;;;;
2022/04/27 07:22:22;;;;;;;12.05;10.85;;;;;;;12.87;100;95640.08;;;;
2022/04/27 07:23:22;;;;;;;12.05;10.85;;;;;;;12.87;100;95640.08;;;;
2022/04/27 07:24:24;;;;;;;12.05;10.85;;;;;;;12.87;100;95640.08;;;;
2022/04/27 07:25:24;;;;;;;12.05;10.85;;;;;;;12.87;100;95640.08;;;;
2022/04/27 07:26:25;;;;;;;12.05;10.85;;;;;;;12.87;100;95640.08;;;;
2022/04/27 07:27:27;;;;;;;12.05;10.85;;;;;;;12.87;100;95640.08;;;;